Time;durP1;ratioP1;P1;durP2;ratioP2;P2;SDS_P1;SDS_P2;PMS_P1;PMS_P2;Temp;Humidity;BMP_temperature;BMP_pressure;BME280_temperature;BME280_humidity;BME280_pressure;Samples;Min_cycle;Max_cycle;Signal;HPM_P1;HPM_P2
2022/10/08 00:02:19;;;;;;;3.60;1.48;;;11.90;99.90;;;12.11;100.00;101187.00;5268361;28;20048;-70
2022/10/08 00:04:51;;;;;;;5.45;1.67;;;11.90;99.90;;;12.12;100.00;101180.94;5268549;28;20492;-70
2022/10/08 00:07:25;;;;;;;4.28;1.98;;;12.00;99.90;;;12.14;100.00;101187.13;5268116;28;20044;-70
2022/10/08 00:09:58;;;;;;;5.18;1.70;;;11.90;99.90;;;12.15;100.00;101182.78;5267804;28;20404;-70
2022/10/08 00:12:30;;;;;;;4.43;1.77;;;11.90;99.90;;;12.15;100.00;101186.28;5267951;28;20054;-69
2022/10/08 00:15:04;;;;;;;4.85;1.70;;;12.00;99.90;;;12.16;100.00;101184.56;5269634;28;20114;-69
2022/10/08 00:17:36;;;;;;;4.82;1.80;;;11.90;99.90;;;12.16;100.00;101185.44;5269409;28;20048;-70
2022/10/08 00:20:09;;;;;;;5.38;2.30;;;12.00;99.90;;;12.18;100.00;101189.00;5269183;28;20407;-70
2022/10/08 00:22:42;;;;;;;3.65;2.05;;;12.00;99.90;;;12.20;100.00;101187.34;5269596;28;20580;-70
2022/10/08 00:25:15;;;;;;;3.63;1.63;;;12.00;99.90;;;12.21;100.00;101183.00;5251736;28;20052;-70
2022/10/08 00:27:47;;;;;;;4.07;1.60;;;12.10;99.90;;;12.22;100.00;101187.38;5268252;28;20040;-70
2022/10/08 00:30:21;;;;;;;4.20;1.77;;;12.00;99.90;;;12.22;100.00;101192.63;5249735;28;20048;-71
2022/10/08 00:32:55;;;;;;;4.25;1.90;;;12.10;99.90;;;12.19;100.00;101184.66;5268278;28;20420;-71
2022/10/08 00:35:27;;;;;;;3.53;1.50;;;12.00;99.90;;;12.17;100.00;101186.34;5267948;28;20123;-70
2022/10/08 00:38:02;;;;;;;3.50;1.92;;;12.00;99.90;;;12.16;100.00;101180.22;5267785;28;20052;-70
2022/10/08 00:40:42;;;;;;;3.03;1.40;;;12.00;99.90;;;12.15;100.00;101186.28;5267369;28;20040;-70
2022/10/08 00:43:18;;;;;;;4.20;1.58;;;12.00;99.90;;;12.12;100.00;101183.56;5267782;28;20047;-70
2022/10/08 00:45:50;;;;;;;4.28;1.80;;;11.90;99.90;;;12.11;100.00;101181.78;5267965;28;20051;-69
2022/10/08 00:48:24;;;;;;;5.70;2.10;;;11.90;99.90;;;12.10;100.00;101180.00;5267664;28;20044;-70
2022/10/08 00:50:56;;;;;;;5.85;1.80;;;11.90;99.90;;;12.10;100.00;101180.00;5266336;28;20048;-70
2022/10/08 00:53:30;;;;;;;7.05;2.05;;;11.90;99.90;;;12.09;100.00;101178.22;5267736;28;20588;-70
2022/10/08 00:56:04;;;;;;;5.65;1.80;;;11.90;99.90;;;12.09;100.00;101178.22;5267820;28;20051;-70
2022/10/08 00:58:38;;;;;;;4.85;1.63;;;11.90;99.90;;;12.07;100.00;101163.34;5266977;28;20075;-71
2022/10/08 01:01:10;;;;;;;4.10;1.23;;;11.90;99.90;;;12.05;100.00;101173.72;5267013;28;20052;-70
2022/10/08 01:03:44;;;;;;;4.05;2.03;;;11.90;99.90;;;12.04;100.00;101168.47;5267826;28;20428;-71
2022/10/08 01:06:25;;;;;;;4.95;1.58;;;11.90;99.90;;;12.02;100.00;101181.47;5267434;28;20043;-70
2022/10/08 01:09:06;;;;;;;3.80;1.58;;;11.90;99.90;;;12.01;100.00;101174.47;5266800;28;20044;-70
2022/10/08 01:11:47;;;;;;;2.85;1.30;;;11.90;99.90;;;11.97;100.00;101169.97;5267227;28;20043;-71
2022/10/08 01:14:33;;;;;;;4.25;1.52;;;11.90;99.90;;;11.99;100.00;101180.47;5265579;28;20142;-70
2022/10/08 01:17:12;;;;;;;4.22;1.58;;;11.80;99.90;;;11.98;100.00;101173.47;5267527;28;20044;-71
2022/10/08 01:20:12;;;;;;;4.95;1.60;;;11.80;99.90;;;11.99;100.00;101181.34;5265096;28;20080;-71
2022/10/08 01:23:20;;;;;;;3.40;1.30;;;11.80;99.90;;;12.00;100.00;101172.69;5267051;28;20507;-70
2022/10/08 01:26:07;;;;;;;3.90;1.60;;;11.90;99.90;;;12.00;100.00;101166.56;5264033;28;20078;-69
2022/10/08 01:28:44;;;;;;;3.65;1.77;;;11.90;99.90;;;12.00;100.00;101177.94;5266524;28;20050;-70
2022/10/08 01:31:21;;;;;;;4.72;1.55;;;11.80;99.90;;;12.00;100.00;101171.78;5248909;28;20155;-70
2022/10/08 01:33:59;;;;;;;5.05;1.60;;;11.90;99.90;;;12.00;100.00;101174.41;5267122;28;20044;-70
2022/10/08 01:36:40;;;;;;;3.67;1.50;;;11.80;99.90;;;11.99;100.00;101173.50;5248588;28;20052;-70
2022/10/08 01:39:16;;;;;;;4.30;1.40;;;11.80;99.90;;;11.98;100.00;101174.34;5266669;28;20119;-71
2022/10/08 01:41:55;;;;;;;4.10;1.45;;;11.90;99.90;;;11.98;100.00;101168.25;5266650;28;20508;-69
2022/10/08 01:44:32;;;;;;;4.63;1.33;;;11.80;99.90;;;11.98;100.00;101169.13;5266830;28;20044;-70
2022/10/08 01:47:09;;;;;;;3.95;1.25;;;11.80;99.90;;;11.98;100.00;101168.25;5266556;28;20063;-70
2022/10/08 01:49:49;;;;;;;2.92;1.30;;;11.80;99.90;;;11.97;100.00;101169.97;5248062;28;20118;-70
2022/10/08 01:52:26;;;;;;;3.67;1.50;;;11.80;99.90;;;11.95;100.00;101163.81;5266157;28;20474;-70
2022/10/08 01:55:02;;;;;;;5.32;1.33;;;11.80;99.90;;;11.98;100.00;101163.00;5266865;28;20043;-70
2022/10/08 01:57:38;;;;;;;2.97;1.10;;;11.80;99.90;;;11.96;100.00;101160.34;5266316;28;20090;-70
2022/10/08 02:00:14;;;;;;;2.30;1.10;;;11.80;99.90;;;11.97;100.00;101164.75;5265952;28;20523;-70
2022/10/08 02:02:46;;;;;;;2.47;1.50;;;11.80;99.90;;;11.98;100.00;101155.19;5264586;28;20056;-71
2022/10/08 02:05:19;;;;;;;2.45;0.98;;;11.80;99.90;;;11.95;100.00;101150.75;5276577;28;20070;-70
2022/10/08 02:07:52;;;;;;;3.42;1.30;;;11.80;99.90;;;11.95;100.00;101158.59;5287033;28;20046;-70
2022/10/08 02:10:26;;;;;;;3.40;1.30;;;11.80;99.90;;;11.94;100.00;101148.97;5286844;28;20039;-69
2022/10/08 02:12:58;;;;;;;3.97;1.27;;;11.80;99.90;;;11.93;100.00;101144.56;5286823;28;20040;-70
2022/10/08 02:15:42;;;;;;;2.50;1.13;;;11.80;99.90;;;11.91;100.00;101151.47;5287656;28;20051;-70
2022/10/08 02:18:18;;;;;;;3.33;1.58;;;11.80;99.90;;;11.88;100.00;101146.16;5287154;28;20411;-70
2022/10/08 02:20:57;;;;;;;2.05;1.02;;;11.70;99.90;;;11.84;100.00;101149.47;5286784;28;20040;-69
2022/10/08 02:23:36;;;;;;;4.10;1.30;;;11.70;99.90;;;11.79;100.00;101151.88;5287129;28;20040;-71
2022/10/08 02:26:12;;;;;;;3.00;1.17;;;11.70;99.90;;;11.73;100.00;101151.66;5287377;28;20043;-70
2022/10/08 02:28:49;;;;;;;2.97;1.40;;;11.60;99.90;;;11.71;100.00;101157.69;5286513;28;20040;-71
2022/10/08 02:31:31;;;;;;;2.90;1.58;;;11.60;99.90;;;11.69;100.00;101153.28;5287202;28;20416;-71
2022/10/08 02:34:09;;;;;;;2.65;1.08;;;11.50;99.90;;;11.70;100.00;101151.56;5287025;28;20052;-69
2022/10/08 02:36:45;;;;;;;3.85;1.58;;;11.60;99.90;;;11.70;100.00;101154.19;5287238;28;20419;-69
2022/10/08 02:39:19;;;;;;;4.85;1.73;;;11.60;99.90;;;11.71;100.00;101155.94;5268156;28;20054;-69
2022/10/08 02:41:56;;;;;;;3.47;1.40;;;11.60;99.90;;;11.73;100.00;101145.56;5286848;28;20062;-70
2022/10/08 02:44:34;;;;;;;1.95;1.00;;;11.60;99.90;;;11.72;100.00;101156.84;5268546;28;20043;-70
2022/10/08 02:47:11;;;;;;;2.28;1.00;;;11.60;99.90;;;11.69;100.00;101155.91;5287183;28;20039;-70
2022/10/08 02:49:50;;;;;;;4.30;1.33;;;11.60;99.90;;;11.64;100.00;101141.78;5286708;28;20043;-69
2022/10/08 02:52:26;;;;;;;3.97;1.30;;;11.50;99.90;;;11.62;100.00;101146.06;5286632;28;20043;-70
2022/10/08 02:55:01;;;;;;;2.17;1.10;;;11.50;99.90;;;11.61;100.00;101157.34;5287094;28;20115;-71
2022/10/08 02:57:39;;;;;;;3.30;1.20;;;11.50;99.90;;;11.61;100.00;101148.63;5268553;28;20132;-70
2022/10/08 03:00:13;;;;;;;1.90;1.40;;;11.50;99.90;;;11.60;100.00;101147.72;5286670;28;20403;-71
2022/10/08 03:02:55;;;;;;;2.15;1.50;;;11.50;99.90;;;11.60;100.00;101146.84;5286946;28;20431;-71
2022/10/08 03:05:28;;;;;;;3.13;0.90;;;11.50;99.90;;;11.62;100.00;101143.47;5286842;28;20565;-71
2022/10/08 03:08:03;;;;;;;4.28;1.45;;;11.50;99.90;;;11.62;100.00;101142.56;5286844;28;20040;-70
2022/10/08 03:10:38;;;;;;;2.17;1.05;;;11.50;99.90;;;11.63;100.00;101141.72;5286306;28;20491;-70
2022/10/08 03:13:11;;;;;;;;;;;11.50;99.90;;;11.62;100.00;101133.00;5290682;22;20051;-90
2022/10/08 03:15:43;;;;;;;1.73;1.08;;;11.50;99.90;;;11.64;100.00;101131.34;5228262;28;19930;-91
2022/10/08 03:18:17;;;;;;;2.50;0.90;;;11.50;99.90;;;11.64;100.00;101141.78;5250472;28;20049;-88
2022/10/08 03:20:51;;;;;;;3.50;1.25;;;11.50;99.90;;;11.64;100.00;101140.91;5249357;28;20041;-88
2022/10/08 03:23:24;;;;;;;2.70;1.00;;;11.50;99.90;;;11.65;100.00;101133.13;5236905;23;20059;-72
2022/10/08 03:25:56;;;;;;;4.05;1.45;;;11.50;99.90;;;11.66;100.00;101129.66;5248684;28;20048;-75
2022/10/08 03:28:28;;;;;;;3.03;1.10;;;11.60;99.90;;;11.67;100.00;101136.69;5248593;28;20107;-72
2022/10/08 03:31:05;;;;;;;4.35;1.17;;;11.60;99.90;;;11.68;100.00;101135.84;5248639;28;20131;-73
2022/10/08 03:33:38;;;;;;;3.33;1.40;;;11.60;99.90;;;11.71;100.00;101136.78;5230907;28;20068;-73
2022/10/08 03:36:11;;;;;;;3.00;1.45;;;11.60;99.90;;;11.69;100.00;101124.56;5230502;28;20052;-72
2022/10/08 03:38:43;;;;;;;3.13;1.52;;;11.60;99.90;;;11.69;100.00;101148.06;5248560;28;20131;-73
2022/10/08 03:41:16;;;;;;;2.83;1.20;;;11.60;99.90;;;11.70;100.00;101146.34;5248329;28;20041;-73
2022/10/08 03:43:48;;;;;;;3.13;1.17;;;11.60;99.90;;;11.72;100.00;101149.00;5248397;28;20044;-71
2022/10/08 03:46:20;;;;;;;3.28;1.33;;;11.60;99.90;;;11.74;100.00;101144.75;5248381;28;20049;-70
2022/10/08 03:48:54;;;;;;;3.95;1.40;;;11.60;99.90;;;11.75;100.00;101152.63;5230521;28;20055;-73
2022/10/08 03:51:26;;;;;;;5.32;1.55;;;11.60;99.90;;;11.78;100.00;101157.06;5230071;28;20493;-74
2022/10/08 03:53:59;;;;;;;3.33;1.50;;;11.60;99.90;;;11.83;100.00;101163.38;5247997;28;20044;-72
2022/10/08 03:56:31;;;;;;;4.78;1.60;;;11.70;99.90;;;11.87;100.00;101165.28;5248267;28;20067;-73
2022/10/08 03:59:03;;;;;;;4.22;1.35;;;11.70;99.90;;;11.89;100.00;101151.41;5230052;28;20102;-73
2022/10/08 04:01:35;;;;;;;3.47;1.70;;;11.80;99.90;;;11.93;100.00;101160.22;5248211;28;20475;-73
2022/10/08 04:04:09;;;;;;;4.13;1.50;;;11.80;99.90;;;11.95;100.00;101158.59;5248338;28;20174;-73
2022/10/08 04:06:41;;;;;;;2.75;1.13;;;11.80;99.90;;;11.99;100.00;101164.78;5229957;28;20523;-73
2022/10/08 04:09:13;;;;;;;5.15;1.50;;;11.80;99.90;;;11.98;100.00;101163.91;5247827;28;20542;-73
2022/10/08 04:11:45;;;;;;;8.98;1.73;;;11.90;99.90;;;11.98;100.00;101158.69;5247889;28;20044;-74
2022/10/08 04:14:17;;;;;;;4.85;1.70;;;11.90;99.90;;;12.01;100.00;101160.53;5230241;28;20400;-74
2022/10/08 04:16:49;;;;;;;4.72;1.77;;;11.90;99.90;;;12.01;100.00;101164.03;5247981;28;20119;-74
2022/10/08 04:19:23;;;;;;;6.75;1.60;;;11.90;99.90;;;12.02;100.00;101170.13;5247869;28;20041;-73
2022/10/08 04:21:55;;;;;;;6.28;1.85;;;11.90;99.90;;;12.02;100.00;101171.03;5247738;28;20497;-73
2022/10/08 04:24:27;;;;;;;4.50;1.88;;;11.90;99.90;;;12.00;100.00;101169.16;5247578;28;20043;-73
2022/10/08 04:26:59;;;;;;;5.53;1.60;;;11.90;99.90;;;12.00;100.00;101180.53;5247740;28;20115;-72
2022/10/08 04:29:31;;;;;;;3.50;1.25;;;11.90;99.90;;;12.00;100.00;101183.16;5247443;28;20048;-73
2022/10/08 04:32:03;;;;;;;2.70;1.40;;;11.90;99.90;;;12.04;100.00;101179.78;5247679;28;20378;-73
2022/10/08 04:34:36;;;;;;;2.38;1.20;;;11.90;99.90;;;12.08;100.00;101180.81;5229270;28;20037;-73
2022/10/08 04:37:09;;;;;;;5.72;1.67;;;12.00;99.90;;;12.10;100.00;101179.13;5247533;28;20493;-72
2022/10/08 04:39:41;;;;;;;2.97;1.23;;;12.00;99.90;;;12.11;100.00;101181.78;5247340;28;20055;-74
2022/10/08 04:42:13;;;;;;;3.42;1.13;;;12.00;99.90;;;12.15;100.00;101191.53;5247400;28;20512;-75
2022/10/08 04:44:45;;;;;;;2.90;1.10;;;12.00;99.90;;;12.17;100.00;101182.00;5247400;28;20092;-67
2022/10/08 04:47:17;;;;;;;4.05;1.10;;;12.10;99.90;;;12.22;100.00;101184.78;5247429;28;20036;-74
2022/10/08 04:49:51;;;;;;;4.30;1.38;;;12.10;99.90;;;12.26;100.00;101190.97;5247272;28;20060;-74
2022/10/08 04:52:23;;;;;;;5.15;1.35;;;12.10;99.90;;;12.28;100.00;101194.56;5229098;28;20052;-72
2022/10/08 04:54:55;;;;;;;3.88;1.27;;;12.10;99.90;;;12.30;100.00;101192.88;5228969;28;20052;-72
2022/10/08 04:57:27;;;;;;;2.88;1.60;;;12.20;99.90;;;12.33;100.00;101195.59;5229093;28;20053;-72
2022/10/08 04:59:59;;;;;;;2.25;1.23;;;12.20;99.90;;;12.38;100.00;101199.25;5246806;28;20047;-74
2022/10/08 05:02:31;;;;;;;4.25;1.10;;;12.20;99.90;;;12.41;100.00;101200.25;5228977;28;20052;-74
2022/10/08 05:05:06;;;;;;;2.65;1.17;;;12.30;99.90;;;12.45;100.00;101204.75;5246814;28;20225;-73
2022/10/08 05:07:38;;;;;;;3.08;1.35;;;12.30;99.90;;;12.47;100.00;101213.53;5246976;28;20044;-74
2022/10/08 05:10:10;;;;;;;3.83;1.45;;;12.30;99.90;;;12.49;100.00;101213.56;5246722;28;20048;-74
2022/10/08 05:12:42;;;;;;;3.25;1.20;;;12.40;99.90;;;12.52;100.00;101215.38;5246635;28;20118;-72
2022/10/08 05:15:15;;;;;;;2.85;0.90;;;12.30;99.90;;;12.56;100.00;101222.50;5246774;28;20041;-72
2022/10/08 05:17:47;;;;;;;2.60;1.20;;;12.40;99.90;;;12.56;100.00;101226.00;5228741;28;20501;-74
2022/10/08 05:20:20;;;;;;;1.42;0.95;;;12.40;99.90;;;12.57;100.00;101224.28;5246607;28;20041;-74
2022/10/08 05:22:52;;;;;;;4.28;1.45;;;12.40;99.90;;;12.57;100.00;101219.06;5228383;28;20242;-74
2022/10/08 05:25:24;;;;;;;4.53;1.25;;;12.40;99.90;;;12.55;100.00;101221.63;5246328;28;20051;-74
2022/10/08 05:27:56;;;;;;;3.15;1.08;;;12.50;99.90;;;12.56;100.00;101228.63;5228705;28;20049;-74
2022/10/08 05:30:29;;;;;;;3.45;1.30;;;12.40;99.90;;;12.57;100.00;101214.72;5228373;28;20050;-74
2022/10/08 05:33:01;;;;;;;3.67;1.33;;;12.40;99.90;;;12.57;100.00;101229.50;5228204;28;20041;-74
2022/10/08 05:35:37;;;;;;;2.67;0.90;;;12.50;99.90;;;12.56;100.00;101228.63;5246385;28;20044;-71
2022/10/08 05:38:09;;;;;;;2.88;1.00;;;12.40;99.90;;;12.55;100.00;101232.09;5228565;28;20074;-73
2022/10/08 05:40:41;;;;;;;3.75;1.45;;;12.50;99.90;;;12.55;100.00;101236.44;5246254;28;20408;-72
2022/10/08 05:43:13;;;;;;;3.28;1.00;;;12.40;99.90;;;12.55;100.00;101234.69;5246137;28;20047;-75
2022/10/08 05:45:52;;;;;;;1.73;0.93;;;12.40;99.90;;;12.57;100.00;101234.75;5228088;28;20152;-75
2022/10/08 05:48:24;;;;;;;2.78;1.10;;;12.40;99.90;;;12.56;100.00;101244.31;5245621;28;20509;-72
2022/10/08 05:51:03;;;;;;;2.35;0.95;;;12.40;99.90;;;12.54;100.00;101235.53;5227915;28;20040;-72
2022/10/08 05:53:36;;;;;;;2.33;1.02;;;12.40;99.90;;;12.55;100.00;101246.88;5228083;28;20040;-74
2022/10/08 05:56:11;;;;;;;2.42;1.02;;;12.40;99.90;;;12.54;100.00;101248.63;5227824;28;20050;-72
2022/10/08 05:58:44;;;;;;;1.92;1.02;;;12.40;99.90;;;12.55;100.00;101245.16;5245964;28;20041;-74
2022/10/08 06:01:19;;;;;;;3.13;1.30;;;12.40;99.90;;;12.55;100.00;101250.41;5245525;28;20052;-71
2022/10/08 06:03:53;;;;;;;2.47;1.10;;;12.40;99.90;;;12.56;100.00;101249.56;5245474;28;20123;-55
2022/10/08 06:06:27;;;;;;;3.15;1.13;;;12.40;99.90;;;12.56;100.00;101244.31;5244645;28;20059;-55
2022/10/08 06:09:01;;;;;;;7.15;1.40;;;12.40;99.90;;;12.55;100.00;101253.00;5244994;28;20053;-55
2022/10/08 06:11:36;;;;;;;5.05;1.30;;;12.40;99.90;;;12.55;100.00;101253.00;5244882;28;20096;-54
2022/10/08 06:14:09;;;;;;;;;;;12.40;99.90;;;12.54;100.00;101251.25;5244834;28;20044;-53
2022/10/08 06:16:41;;;;;;;2.08;1.10;;;12.40;99.90;;;12.57;100.00;101260.91;5237069;28;19920;-55
2022/10/08 06:19:14;;;;;;;2.97;1.50;;;12.40;99.90;;;12.58;100.00;101268.78;5244925;28;20405;-57
2022/10/08 06:21:48;;;;;;;1.75;1.20;;;12.50;99.90;;;12.60;100.00;101267.13;5244796;28;20404;-55
2022/10/08 06:24:21;;;;;;;5.15;1.13;;;12.50;99.90;;;12.62;100.00;101281.16;5244978;28;20041;-54
2022/10/08 06:26:53;;;;;;;2.60;0.80;;;12.50;99.90;;;12.67;100.00;101286.53;5245017;28;20041;-54
2022/10/08 06:29:25;;;;;;;3.10;1.13;;;12.50;99.90;;;12.72;100.00;101291.09;5245005;28;20555;-54
2022/10/08 06:31:57;;;;;;;2.95;1.45;;;12.50;99.90;;;12.75;100.00;101293.81;5243071;28;20413;-54
2022/10/08 06:34:29;;;;;;;1.63;0.77;;;12.60;99.90;;;12.81;100.00;101285.28;5172550;28;20041;-56
2022/10/08 06:37:02;;;;;;;1.73;0.93;;;12.70;99.90;;;12.87;100.00;101287.22;5241676;28;20041;-54
2022/10/08 06:39:35;;;;;;;3.50;1.08;;;12.70;99.90;;;12.94;100.00;101294.44;5244840;28;20040;-54
2022/10/08 06:42:07;;;;;;;2.75;0.95;;;12.70;99.90;;;12.99;100.00;101290.22;5244970;28;20056;-54
2022/10/08 06:44:42;;;;;;;2.70;0.95;;;12.80;99.90;;;13.08;100.00;101287.91;5226833;28;20057;-53
2022/10/08 06:47:14;;;;;;;3.88;1.42;;;12.90;99.90;;;13.14;100.00;101298.56;5244892;28;20048;-54
2022/10/08 06:49:46;;;;;;;1.50;0.90;;;13.00;99.90;;;13.21;100.00;101295.34;5215008;28;20516;-54
2022/10/08 06:52:20;;;;;;;1.83;0.88;;;13.00;99.90;;;13.27;100.00;101305.13;5231287;28;20044;-56
2022/10/08 06:54:52;;;;;;;3.42;1.50;;;13.10;99.90;;;13.33;100.00;101317.53;5245212;28;20374;-54
2022/10/08 06:57:24;;;;;;;3.45;1.35;;;13.10;99.90;;;13.37;100.00;101322.03;5245152;28;20323;-55
2022/10/08 06:59:57;;;;;;;3.33;0.95;;;13.20;99.90;;;13.42;100.00;101317.81;5248836;28;20051;-55
2022/10/08 07:02:30;;;;;;;1.90;1.10;;;13.20;99.90;;;13.47;100.00;101324.97;5248681;28;20044;-56
2022/10/08 07:05:03;;;;;;;3.38;1.45;;;13.30;99.90;;;13.52;100.00;101325.13;5248620;28;20048;-55
2022/10/08 07:07:36;;;;;;;3.42;1.15;;;13.30;99.90;;;13.58;100.00;101330.56;5248419;28;20079;-56
2022/10/08 07:10:09;;;;;;;3.60;1.55;;;13.40;99.90;;;13.63;100.00;101336.84;5247861;28;20036;-54
2022/10/08 07:12:41;;;;;;;5.95;2.05;;;13.40;99.90;;;13.64;100.00;101341.22;5162578;28;20533;-54
2022/10/08 07:15:13;;;;;;;4.90;2.42;;;13.40;99.90;;;13.66;100.00;101354.38;5243291;28;20075;-54
2022/10/08 07:17:45;;;;;;;5.13;2.47;;;13.50;99.90;;;13.70;100.00;101348.41;5248328;28;20052;-54
2022/10/08 07:20:17;;;;;;;3.88;1.85;;;13.50;99.90;;;13.77;100.00;101355.59;5248186;28;20040;-55
2022/10/08 07:22:51;;;;;;;6.18;2.60;;;13.60;99.90;;;13.83;100.00;101356.66;5247742;28;20045;-55
2022/10/08 07:25:23;;;;;;;5.97;2.60;;;13.60;99.90;;;13.92;100.00;101365.66;5248419;28;20040;-55
2022/10/08 07:27:55;;;;;;;5.47;2.08;;;13.70;99.90;;;13.98;100.00;101361.47;5248074;28;20036;-55
2022/10/08 07:30:27;;;;;;;9.70;2.88;;;13.70;99.90;;;14.02;100.00;101365.97;5247752;28;20512;-55
2022/10/08 07:32:59;;;;;;;10.23;3.03;;;13.80;99.90;;;14.05;100.00;101367.78;5248154;28;20493;-56
2022/10/08 07:35:31;;;;;;;6.47;2.42;;;13.80;99.90;;;14.09;100.00;101374.91;5247961;28;20036;-56
2022/10/08 07:38:05;;;;;;;5.63;2.10;;;13.90;99.90;;;14.17;100.00;101386.50;5248025;28;20047;-58
2022/10/08 07:40:37;;;;;;;8.73;3.35;;;13.90;99.90;;;14.20;100.00;101378.72;5249512;28;20113;-50
2022/10/08 07:43:09;;;;;;;3.67;2.97;;;14.00;99.90;;;14.17;100.00;101385.63;5249915;28;20391;-50
2022/10/08 07:45:45;;;;;;;7.75;2.67;;;14.00;99.90;;;14.16;100.00;101389.97;5250185;28;20548;-50
2022/10/08 07:48:18;;;;;;;4.55;2.58;;;14.00;99.90;;;14.19;100.00;101390.06;5250053;28;20076;-50
2022/10/08 07:50:51;;;;;;;6.10;2.90;;;14.00;99.90;;;14.24;100.00;101390.19;5249576;28;20131;-51
2022/10/08 07:53:24;;;;;;;3.70;2.05;;;14.00;99.90;;;14.27;100.00;101396.41;5250038;28;20036;-49
2022/10/08 07:55:57;;;;;;;6.43;2.72;;;14.10;99.90;;;14.32;100.00;101405.31;5249807;28;20037;-50
2022/10/08 07:58:30;;;;;;;7.68;2.92;;;14.10;99.90;;;14.39;100.00;101412.50;5249789;28;20078;-49
2022/10/08 08:01:05;;;;;;;3.55;2.30;;;14.20;99.90;;;14.45;100.00;101416.16;5248469;28;20048;-50
2022/10/08 08:03:37;;;;;;;9.43;3.38;;;14.20;99.90;;;14.50;100.00;101411.97;5248500;28;20448;-51
2022/10/08 08:06:12;;;;;;;8.95;3.58;;;14.30;99.90;;;14.49;100.00;101408.47;5247219;28;20501;-49
2022/10/08 08:08:46;;;;;;;7.15;2.80;;;14.30;99.90;;;14.58;100.00;101423.56;5246601;28;20051;-50
2022/10/08 08:11:20;;;;;;;5.50;3.20;;;14.30;99.90;;;14.72;100.00;101422.22;5246943;28;20380;-50
2022/10/08 08:13:53;;;;;;;7.05;3.30;;;14.40;99.90;;;14.88;100.00;101421.81;5247121;28;20049;-55
2022/10/08 08:16:28;;;;;;;7.63;2.85;;;14.50;99.90;;;15.17;100.00;101427.81;5247789;28;20047;-55
2022/10/08 08:19:02;;;;;;;7.00;2.95;;;14.70;99.90;;;15.36;100.00;101434.44;5247658;28;20044;-57
2022/10/08 08:21:37;;;;;;;7.95;2.60;;;15.00;99.90;;;15.52;100.00;101438.34;5229396;28;20045;-58
2022/10/08 08:24:14;;;;;;;8.70;2.50;;;15.10;99.90;;;15.64;100.00;101440.41;5247358;28;20045;-54
2022/10/08 08:26:46;;;;;;;6.63;3.13;;;15.20;99.90;;;15.73;100.00;101446.78;5247628;28;20086;-56
2022/10/08 08:29:19;;;;;;;7.60;2.83;;;15.40;99.90;;;15.97;100.00;101448.19;5247780;28;20047;-54
2022/10/08 08:31:51;;;;;;;6.45;3.10;;;15.60;99.90;;;16.21;100.00;101445.25;5150369;28;20061;-53
2022/10/08 08:34:24;;;;;;;7.70;3.10;;;15.80;99.90;;;16.39;100.00;101461.44;5242368;28;20041;-52
2022/10/08 08:36:56;;;;;;;5.75;2.58;;;15.90;99.90;;;16.39;100.00;101469.31;5247315;28;20040;-51
2022/10/08 08:39:30;;;;;;;9.15;3.08;;;16.00;99.90;;;16.49;100.00;101466.00;5247460;28;20505;-53
2022/10/08 08:42:44;;;;;;;6.80;3.20;;;16.10;99.90;;;16.50;100.00;101459.94;5247275;28;20048;-50
2022/10/08 08:45:26;;;;;;;8.88;3.20;;;16.10;99.90;;;16.49;100.00;101463.38;5243952;28;20047;-51
2022/10/08 08:48:04;;;;;;;6.93;2.55;;;16.10;99.90;;;16.61;100.00;101468.03;5247283;28;20585;-52
2022/10/08 08:50:40;;;;;;;6.32;2.75;;;16.30;99.90;;;16.65;100.00;101467.25;5246901;28;20102;-51
2022/10/08 08:53:13;;;;;;;8.70;2.80;;;16.30;99.90;;;16.57;100.00;101476.75;5247503;28;20051;-50
2022/10/08 08:55:49;;;;;;;7.63;2.90;;;16.30;99.90;;;16.49;100.00;101484.44;5247171;28;20047;-50
2022/10/08 08:58:33;;;;;;;6.32;3.03;;;16.20;99.90;;;16.35;100.00;101482.38;5229113;28;20048;-51
2022/10/08 09:01:17;;;;;;;8.93;3.28;;;16.10;99.90;;;16.10;100.00;101483.56;5246825;28;20051;-52
2022/10/08 09:03:52;;;;;;;8.45;2.80;;;15.90;99.90;;;16.04;100.00;101473.81;5246787;28;20110;-50
2022/10/08 09:06:25;;;;;;;6.50;2.90;;;15.80;99.90;;;16.36;100.00;101482.41;5246697;28;20049;-52
2022/10/08 09:09:01;;;;;;;7.82;2.78;;;16.00;99.90;;;16.78;100.00;101482.47;5246776;28;20044;-51
2022/10/08 09:11:38;;;;;;;6.15;2.88;;;16.30;99.90;;;17.11;100.00;101491.00;5246722;28;20048;-50
2022/10/08 09:14:28;;;;;;;6.22;3.15;;;16.60;99.90;;;17.32;100.00;101496.66;5259270;22;20071;-54
2022/10/08 09:17:08;;;;;;;7.22;3.55;;;16.80;99.90;;;17.47;100.00;101490.78;5248068;28;20401;-52
2022/10/08 09:19:41;;;;;;;9.38;2.70;;;17.00;99.90;;;17.69;100.00;101502.59;5246536;28;20052;-53
2022/10/08 09:22:23;;;;;;;7.80;2.53;;;17.20;99.90;;;17.76;100.00;101504.50;5232445;28;20087;-51
2022/10/08 09:25:00;;;;;;;5.97;2.20;;;17.40;99.90;;;17.97;100.00;101504.84;5225920;28;20052;-52
2022/10/08 09:27:54;;;;;;;8.57;2.78;;;17.50;99.90;;;18.38;100.00;101502.81;5225327;28;20052;-52
2022/10/08 09:30:35;;;;;;;;;;;17.90;99.90;;;18.65;99.87;101506.72;5225670;28;20048;-54
2022/10/08 09:33:25;;;;;;;4.50;1.80;;;18.10;99.90;;;18.77;98.55;101506.88;5225937;28;19924;-53
2022/10/08 09:35:58;;;;;;;3.95;2.00;;;18.30;99.90;;;18.92;96.47;101506.22;5225629;28;20498;-55
2022/10/08 09:38:35;;;;;;;5.28;1.83;;;18.40;99.90;;;18.89;96.05;101516.72;5224962;28;20048;-55
2022/10/08 09:41:18;;;;;;;6.20;2.42;;;18.50;99.90;;;18.72;94.65;101513.88;5225388;28;20053;-52
2022/10/08 09:44:12;;;;;;;5.43;1.92;;;18.40;99.90;;;18.49;94.86;101524.09;5227687;28;20045;-53
2022/10/08 09:46:48;;;;;;;5.20;2.53;;;18.20;99.80;;;18.32;95.04;101525.59;5221601;28;20413;-55
2022/10/08 09:49:32;;;;;;;7.55;2.00;;;18.10;99.80;;;18.15;95.34;101535.91;5226664;28;20067;-53
2022/10/08 09:52:12;;;;;;;5.07;1.80;;;18.00;99.90;;;17.93;94.98;101526.78;5227763;28;20048;-54
2022/10/08 09:54:48;;;;;;;8.00;2.47;;;17.80;99.70;;;17.62;95.20;101534.13;5228484;28;20073;-54
2022/10/08 09:57:22;;;;;;;5.38;2.15;;;17.50;99.60;;;17.46;96.15;101541.72;5226217;28;20051;-53
2022/10/08 09:59:59;;;;;;;6.38;2.00;;;17.30;99.90;;;17.55;97.16;101526.97;5223119;28;20132;-54
2022/10/08 10:02:34;;;;;;;6.72;2.00;;;17.20;99.90;;;17.69;95.29;101528.97;5227459;28;20045;-53
2022/10/08 10:05:20;;;;;;;6.10;1.77;;;17.30;99.90;;;17.62;94.48;101534.13;5227427;28;20048;-54
2022/10/08 10:07:53;;;;;;;4.78;1.60;;;17.30;99.80;;;17.52;94.49;101531.28;5227514;28;20041;-53
2022/10/08 10:10:31;;;;;;;5.18;1.60;;;17.20;99.80;;;17.31;92.49;101542.34;5225625;28;20047;-54
2022/10/08 10:13:10;;;;;;;4.93;1.42;;;17.10;99.20;;;16.97;92.34;101544.31;5224336;28;20048;-52
2022/10/08 10:15:52;;;;;;;9.48;2.15;;;16.80;98.90;;;16.69;92.86;101548.06;5220824;28;20048;-52
2022/10/08 10:18:30;;;;;;;4.13;1.88;;;16.50;99.10;;;16.45;93.52;101551.03;5220931;28;20405;-52
2022/10/08 10:21:11;;;;;;;6.88;1.60;;;16.30;99.20;;;16.29;94.33;101556.78;5224314;28;20053;-53
2022/10/08 10:23:51;;;;;;;3.88;1.85;;;16.20;99.50;;;16.22;94.80;101553.13;5224589;28;20114;-53
2022/10/08 10:26:29;;;;;;;3.17;1.67;;;16.00;99.70;;;16.19;95.05;101555.69;5224461;28;20394;-53
2022/10/08 10:29:06;;;;;;;3.72;1.50;;;15.90;99.90;;;16.23;93.91;101551.38;5224143;28;20053;-52
2022/10/08 10:31:45;;;;;;;6.40;1.67;;;16.00;99.70;;;16.24;93.91;101547.91;5223812;28;20052;-53
2022/10/08 10:34:22;;;;;;;5.32;1.83;;;16.00;99.70;;;16.27;93.80;101546.22;5227767;28;20063;-53
2022/10/08 10:36:58;;;;;;;4.70;2.10;;;16.00;99.70;;;16.40;94.57;101543.88;5226627;28;20130;-53
2022/10/08 10:39:39;;;;;;;3.28;1.70;;;16.10;99.90;;;16.67;95.04;101548.88;5218813;28;20063;-53
2022/10/08 10:42:19;;;;;;;7.45;1.55;;;16.30;99.90;;;16.89;94.62;101548.53;5229171;28;20539;-59